createdAt,value
2023-01-01T00:00:34.054Z,3.00
2023-01-01T00:03:02.698Z,3.00
2023-01-01T00:05:31.391Z,2.97
2023-01-01T00:08:04.456Z,2.90
2023-01-01T00:10:35.348Z,3.00
2023-01-01T00:13:03.969Z,2.90
2023-01-01T00:15:32.865Z,2.78
2023-01-01T00:18:01.602Z,3.10
2023-01-01T00:20:34.913Z,2.85
2023-01-01T00:23:04.403Z,3.20
2023-01-01T00:25:34.425Z,4.57
2023-01-01T00:28:03.309Z,6.53
2023-01-01T00:30:31.973Z,6.15
2023-01-01T00:33:00.705Z,5.60
2023-01-01T00:35:29.372Z,6.20
2023-01-01T00:37:58.370Z,5.78
2023-01-01T00:40:26.942Z,5.45
2023-01-01T00:42:56.952Z,6.68
2023-01-01T00:45:25.728Z,5.45
2023-01-01T00:47:55.021Z,6.00
2023-01-01T00:50:24.058Z,6.03
2023-01-01T00:52:53.013Z,5.55
2023-01-01T00:55:21.728Z,6.10
2023-01-01T00:57:50.489Z,5.75
2023-01-01T01:00:20.923Z,5.95
2023-01-01T01:02:49.556Z,5.55
2023-01-01T01:05:18.366Z,5.05
2023-01-01T01:07:47.043Z,5.53
2023-01-01T01:10:15.720Z,5.57
2023-01-01T01:12:44.394Z,4.80
2023-01-01T01:15:13.396Z,5.57
2023-01-01T01:17:43.612Z,5.50
2023-01-01T01:20:12.808Z,5.63
2023-01-01T01:22:41.655Z,4.72
2023-01-01T01:25:11.613Z,5.53
2023-01-01T01:27:40.851Z,5.78
2023-01-01T01:30:10.701Z,5.28
2023-01-01T01:32:39.375Z,5.30
2023-01-01T01:35:10.351Z,5.20
2023-01-01T01:37:39.298Z,5.25
2023-01-01T01:40:09.877Z,5.20
2023-01-01T01:42:38.534Z,4.78
2023-01-01T01:45:09.242Z,4.68
2023-01-01T01:47:39.529Z,4.90
2023-01-01T01:50:13.437Z,5.35
2023-01-01T01:52:51.730Z,5.03
2023-01-01T01:55:20.486Z,4.82
2023-01-01T01:57:49.140Z,4.75
2023-01-01T02:00:19.909Z,4.75
2023-01-01T02:02:52.774Z,4.65
2023-01-01T02:05:23.023Z,4.93
2023-01-01T02:07:52.365Z,4.38
2023-01-01T02:10:21.406Z,4.82
2023-01-01T02:12:50.328Z,4.60
2023-01-01T02:15:19.360Z,4.30
2023-01-01T02:17:55.657Z,3.90
2023-01-01T02:20:39.616Z,4.30
2023-01-01T02:23:32.944Z,4.22
2023-01-01T02:26:39.752Z,4.95
2023-01-01T02:29:25.102Z,4.45
2023-01-01T02:31:59.242Z,4.53
2023-01-01T02:34:31.047Z,4.93
2023-01-01T02:36:59.899Z,4.20
2023-01-01T02:39:30.577Z,4.22
2023-01-01T02:41:59.357Z,3.67
2023-01-01T02:44:29.839Z,4.07
2023-01-01T02:46:58.408Z,4.30
2023-01-01T02:49:27.170Z,4.13
2023-01-01T02:52:03.140Z,4.30
2023-01-01T02:54:35.348Z,4.10
2023-01-01T02:57:09.579Z,4.32
2023-01-01T03:00:07.588Z,3.65
2023-01-01T03:02:46.669Z,4.20
2023-01-01T03:05:21.955Z,4.00
2023-01-01T03:08:00.741Z,3.92
2023-01-01T03:10:34.711Z,3.88
2023-01-01T03:13:06.803Z,4.30
2023-01-01T03:15:40.135Z,3.92
2023-01-01T03:18:11.790Z,4.10
2023-01-01T03:20:42.772Z,3.72
2023-01-01T03:23:15.274Z,3.72
2023-01-01T03:25:47.041Z,3.60
2023-01-01T03:28:18.093Z,3.80
2023-01-01T03:30:48.919Z,3.67
2023-01-01T03:33:19.832Z,3.25
2023-01-01T03:35:51.704Z,3.70
2023-01-01T03:38:23.700Z,4.25
2023-01-01T03:40:55.598Z,3.67
2023-01-01T03:43:35.139Z,3.33
2023-01-01T03:46:05.616Z,3.75
2023-01-01T03:49:02.094Z,3.63
2023-01-01T03:51:44.934Z,3.95
2023-01-01T03:54:17.465Z,4.00
2023-01-01T03:56:48.105Z,3.40
2023-01-01T03:59:19.574Z,4.00
2023-01-01T04:01:51.711Z,3.17
2023-01-01T04:04:20.800Z,3.25
2023-01-01T04:06:49.437Z,3.40
2023-01-01T04:09:22.423Z,3.65
2023-01-01T04:12:04.563Z,3.40
2023-01-01T04:14:36.658Z,3.17
2023-01-01T04:17:07.739Z,3.88
2023-01-01T04:19:36.356Z,3.47
2023-01-01T04:22:05.611Z,3.75
2023-01-01T04:24:34.338Z,3.42
2023-01-01T04:27:03.098Z,3.20
2023-01-01T04:29:31.789Z,3.60
2023-01-01T04:32:00.439Z,3.30
2023-01-01T04:34:30.486Z,3.15
2023-01-01T04:36:59.293Z,3.60
2023-01-01T04:39:27.872Z,3.15
2023-01-01T04:41:56.622Z,3.70
2023-01-01T04:44:25.380Z,3.72
2023-01-01T04:46:59.901Z,3.53
2023-01-01T04:49:30.516Z,3.25
2023-01-01T04:51:59.215Z,3.80
2023-01-01T04:54:27.772Z,2.90
2023-01-01T04:56:56.703Z,3.25
2023-01-01T04:59:25.440Z,3.45
2023-01-01T05:01:54.660Z,3.33
2023-01-01T05:04:23.545Z,3.05
2023-01-01T05:06:53.808Z,3.30
2023-01-01T05:09:22.952Z,3.20
2023-01-01T05:11:51.712Z,3.10
2023-01-01T05:14:20.332Z,3.25
2023-01-01T05:16:49.183Z,3.08
2023-01-01T05:19:17.828Z,3.22
2023-01-01T05:21:46.866Z,2.85
2023-01-01T05:24:17.111Z,3.15
2023-01-01T05:26:46.246Z,3.17
2023-01-01T05:29:16.859Z,3.25
2023-01-01T05:31:46.650Z,3.58
2023-01-01T05:34:15.830Z,2.92
2023-01-01T05:36:44.713Z,3.00
2023-01-01T05:39:13.911Z,2.80
2023-01-01T05:41:43.898Z,3.17
2023-01-01T05:44:12.990Z,2.90
2023-01-01T05:46:41.634Z,3.17
2023-01-01T05:49:12.206Z,3.28
2023-01-01T05:56:36.868Z,3.10
2023-01-01T05:59:07.051Z,3.22
2023-01-01T06:01:43.304Z,2.60
2023-01-01T06:04:14.153Z,2.83
2023-01-01T06:06:43.168Z,2.85
2023-01-01T06:09:11.967Z,3.15
2023-01-01T06:11:41.079Z,2.60
2023-01-01T06:14:11.147Z,2.58
2023-01-01T06:16:39.822Z,2.90
2023-01-01T06:19:08.773Z,2.80
2023-01-01T06:21:37.575Z,2.83
2023-01-01T06:24:08.506Z,3.00
2023-01-01T06:26:37.362Z,2.75
2023-01-01T06:29:06.239Z,2.60
2023-01-01T06:31:40.656Z,2.53
2023-01-01T06:34:10.275Z,2.47
2023-01-01T06:36:39.133Z,2.72
2023-01-01T06:39:07.944Z,2.60
2023-01-01T06:41:36.663Z,2.70
2023-01-01T06:44:05.805Z,2.80
2023-01-01T06:46:37.086Z,2.75
2023-01-01T06:49:07.305Z,2.53
2023-01-01T06:51:38.504Z,2.70
2023-01-01T06:54:07.676Z,2.25
2023-01-01T06:56:36.474Z,2.58
2023-01-01T06:59:05.537Z,2.25
2023-01-01T07:01:36.786Z,2.50
2023-01-01T07:04:06.608Z,2.53
2023-01-01T07:06:35.666Z,2.70
2023-01-01T07:09:04.774Z,2.33
2023-01-01T07:11:33.489Z,2.58
2023-01-01T07:14:02.246Z,2.40
2023-01-01T07:16:31.241Z,2.53
2023-01-01T07:19:01.412Z,2.35
2023-01-01T07:21:32.175Z,2.40
2023-01-01T07:24:01.357Z,2.30
2023-01-01T07:26:30.915Z,2.60
2023-01-01T07:29:06.330Z,2.40
2023-01-01T07:31:36.721Z,2.60
2023-01-01T07:34:06.850Z,2.40
2023-01-01T07:36:35.625Z,2.95
2023-01-01T07:39:04.396Z,2.45
2023-01-01T07:41:33.168Z,2.30
2023-01-01T07:44:01.778Z,2.40
2023-01-01T07:46:30.923Z,2.13
2023-01-01T07:48:59.553Z,2.22
2023-01-01T07:51:29.604Z,2.30
2023-01-01T07:54:03.942Z,2.40
2023-01-01T07:56:35.838Z,2.25
2023-01-01T07:59:04.722Z,2.53
2023-01-01T08:01:36.008Z,2.95
2023-01-01T08:04:04.978Z,2.30
2023-01-01T08:06:34.921Z,2.30
2023-01-01T08:09:03.563Z,2.15
2023-01-01T08:11:32.268Z,2.25
2023-01-01T08:14:00.943Z,2.33
2023-01-01T08:16:29.562Z,2.30
2023-01-01T08:18:58.419Z,2.17
2023-01-01T08:21:27.325Z,2.20
2023-01-01T08:23:57.388Z,2.50
2023-01-01T08:26:30.803Z,1.98
2023-01-01T08:29:00.065Z,2.28
2023-01-01T08:31:29.027Z,2.40
2023-01-01T08:33:58.231Z,2.10
2023-01-01T08:36:27.219Z,2.25
2023-01-01T08:38:57.475Z,2.20
2023-01-01T08:41:26.172Z,1.92
2023-01-01T08:43:55.061Z,1.90
2023-01-01T08:46:23.851Z,2.33
2023-01-01T08:48:52.542Z,1.85
2023-01-01T08:51:21.153Z,2.25
2023-01-01T08:53:51.481Z,2.05
2023-01-01T08:56:21.833Z,1.90
2023-01-01T08:58:50.451Z,1.88
2023-01-01T09:01:21.883Z,1.90
2023-01-01T09:03:50.758Z,1.65
2023-01-01T09:06:19.393Z,2.05
2023-01-01T09:08:48.077Z,1.90
2023-01-01T09:11:24.500Z,1.92
2023-01-01T09:13:53.228Z,2.10
2023-01-01T09:16:22.264Z,1.88
2023-01-01T09:18:50.882Z,1.90
2023-01-01T09:21:19.446Z,1.80
2023-01-01T09:23:48.233Z,1.90
2023-01-01T09:26:16.770Z,1.80
2023-01-01T09:28:46.718Z,1.80
2023-01-01T09:31:15.377Z,1.80
2023-01-01T09:33:44.037Z,1.70
2023-01-01T09:36:17.235Z,1.80
2023-01-01T09:38:50.307Z,1.65
2023-01-01T09:41:22.726Z,1.70
2023-01-01T09:43:58.780Z,2.00
2023-01-01T09:46:31.725Z,2.05
2023-01-01T09:49:04.304Z,1.60
2023-01-01T09:51:39.885Z,1.52
2023-01-01T09:54:15.373Z,1.63
2023-01-01T09:56:43.968Z,1.92
2023-01-01T09:59:14.120Z,1.90
2023-01-01T10:01:47.479Z,1.77
2023-01-01T10:04:47.879Z,1.77
2023-01-01T10:07:21.181Z,2.00
2023-01-01T10:09:55.557Z,1.80
2023-01-01T10:12:28.942Z,1.70
2023-01-01T10:15:03.424Z,1.70
2023-01-01T10:17:36.153Z,1.73
2023-01-01T10:20:07.870Z,1.90
2023-01-01T10:22:38.977Z,1.85
2023-01-01T10:25:16.670Z,1.73
2023-01-01T10:27:51.333Z,2.10
2023-01-01T10:30:25.738Z,1.85
2023-01-01T10:32:55.672Z,1.80
2023-01-01T10:35:31.158Z,1.92
2023-01-01T10:38:00.383Z,1.80
2023-01-01T10:40:30.283Z,2.60
2023-01-01T10:42:59.788Z,2.03
2023-01-01T10:45:33.589Z,2.10
2023-01-01T10:48:13.360Z,1.75
2023-01-01T10:50:52.591Z,1.92
2023-01-01T10:53:27.411Z,2.08
2023-01-01T10:56:05.842Z,1.98
2023-01-01T10:58:44.401Z,2.15
2023-01-01T11:01:20.761Z,2.08
2023-01-01T11:03:58.751Z,2.13
2023-01-01T11:06:28.480Z,1.98
2023-01-01T11:08:58.497Z,1.92
2023-01-01T11:11:31.345Z,2.22
2023-01-01T11:14:01.368Z,2.10
2023-01-01T11:16:31.637Z,2.10
2023-01-01T11:19:07.259Z,1.98
2023-01-01T11:21:36.375Z,2.00
2023-01-01T11:24:20.632Z,2.15
2023-01-01T11:26:54.615Z,2.38
2023-01-01T11:29:27.817Z,2.10
2023-01-01T11:31:58.345Z,2.30
2023-01-01T11:34:33.239Z,2.55
2023-01-01T11:37:16.785Z,2.20
2023-01-01T11:39:46.305Z,2.38
2023-01-01T11:42:19.902Z,2.35
2023-01-01T11:44:50.121Z,2.60
2023-01-01T11:47:26.485Z,2.30
2023-01-01T11:49:57.036Z,2.20
2023-01-01T11:52:34.709Z,2.05
2023-01-01T11:55:10.314Z,2.00
2023-01-01T11:57:42.455Z,2.17
2023-01-01T12:00:15.674Z,2.25
2023-01-01T12:02:49.829Z,2.50
2023-01-01T12:05:22.158Z,2.38
2023-01-01T12:07:50.737Z,2.40
2023-01-01T12:10:23.291Z,2.65
2023-01-01T12:12:54.645Z,2.30
2023-01-01T12:15:27.613Z,2.30
2023-01-01T12:18:03.030Z,2.25
2023-01-01T12:20:33.801Z,2.40
2023-01-01T12:23:03.437Z,2.40
2023-01-01T12:25:37.474Z,2.30
2023-01-01T12:28:16.619Z,2.30
2023-01-01T12:30:50.032Z,2.42
2023-01-01T12:33:38.803Z,2.03
2023-01-01T12:36:23.223Z,2.00
2023-01-01T12:39:50.436Z,2.03
2023-01-01T12:42:21.490Z,2.10
2023-01-01T12:45:05.579Z,2.05
2023-01-01T12:47:40.583Z,2.20
2023-01-01T12:50:18.218Z,2.30
2023-01-01T12:52:55.767Z,2.10
2023-01-01T12:55:43.672Z,2.40
2023-01-01T12:58:14.395Z,2.38
2023-01-01T13:00:44.879Z,2.08
2023-01-01T13:03:19.327Z,2.40
2023-01-01T13:05:51.460Z,2.00
2023-01-01T13:08:20.133Z,2.45
2023-01-01T13:10:50.389Z,2.30
2023-01-01T13:13:18.698Z,2.20
2023-01-01T13:15:51.805Z,2.65
2023-01-01T13:18:23.991Z,2.22
2023-01-01T13:21:08.886Z,2.10
2023-01-01T13:24:04.311Z,2.00
2023-01-01T13:26:42.988Z,2.30
2023-01-01T13:29:37.176Z,2.28
2023-01-01T13:32:11.055Z,2.10
2023-01-01T13:35:03.712Z,2.47
2023-01-01T13:37:51.195Z,2.13
2023-01-01T13:40:51.180Z,2.20
2023-01-01T13:43:22.233Z,2.47
2023-01-01T13:49:16.843Z,3.35
2023-01-01T13:52:10.944Z,3.00
2023-01-01T13:55:30.761Z,3.40
2023-01-01T13:58:21.064Z,3.42
2023-01-01T14:01:07.289Z,3.08
2023-01-01T14:03:41.817Z,3.95
2023-01-01T14:06:12.997Z,3.88
2023-01-01T14:08:43.354Z,3.85
2023-01-01T14:11:25.262Z,4.15
2023-01-01T14:13:54.029Z,4.07
2023-01-01T14:16:22.817Z,4.07
2023-01-01T14:18:53.490Z,3.70
2023-01-01T14:21:23.572Z,4.00
2023-01-01T14:23:54.013Z,4.40
2023-01-01T14:26:25.647Z,3.95
2023-01-01T14:28:55.629Z,4.05
2023-01-01T14:31:25.763Z,3.97
2023-01-01T14:33:54.334Z,3.80
2023-01-01T14:36:24.264Z,4.15
2023-01-01T14:38:54.100Z,8.32
2023-01-01T14:41:28.395Z,9.82
2023-01-01T14:43:58.920Z,7.32
2023-01-01T14:46:28.128Z,9.65
2023-01-01T14:49:01.236Z,10.20
2023-01-01T14:51:31.837Z,10.60
2023-01-01T14:54:01.724Z,11.63
2023-01-01T14:56:35.413Z,8.98
2023-01-01T14:59:08.785Z,12.63
2023-01-01T15:01:37.771Z,10.82
2023-01-01T15:04:18.835Z,12.10
2023-01-01T15:06:47.618Z,11.43
2023-01-01T15:09:16.800Z,13.13
2023-01-01T15:11:46.777Z,11.40
2023-01-01T15:14:34.931Z,12.95
2023-01-01T15:17:04.763Z,11.85
2023-01-01T15:19:35.125Z,11.55
2023-01-01T15:22:03.906Z,10.98
2023-01-01T15:24:33.553Z,11.38
2023-01-01T15:27:05.512Z,11.15
2023-01-01T15:29:35.500Z,11.25
2023-01-01T15:32:05.807Z,10.70
2023-01-01T15:34:36.096Z,10.13
2023-01-01T15:37:11.420Z,10.90
2023-01-01T15:39:51.127Z,10.45
2023-01-01T15:42:34.374Z,9.73
2023-01-01T15:45:22.764Z,10.02
2023-01-01T15:47:51.904Z,10.00
2023-01-01T15:50:25.482Z,10.10
2023-01-01T15:52:56.186Z,11.05
2023-01-01T15:55:24.852Z,10.57
2023-01-01T15:57:54.951Z,9.82
2023-01-01T16:00:24.883Z,9.50
2023-01-01T16:02:54.180Z,9.70
2023-01-01T16:05:25.636Z,9.63
2023-01-01T16:08:00.658Z,9.52
2023-01-01T16:10:29.418Z,8.40
2023-01-01T16:13:02.829Z,8.73
2023-01-01T16:15:33.424Z,8.88
2023-01-01T16:18:03.953Z,8.48
2023-01-01T16:20:32.565Z,9.02
2023-01-01T16:23:01.179Z,8.85
2023-01-01T16:25:29.960Z,8.35
2023-01-01T16:27:59.934Z,8.38
2023-01-01T16:30:28.588Z,8.50
2023-01-01T16:32:57.324Z,8.40
2023-01-01T16:35:25.925Z,7.22
2023-01-01T16:37:54.518Z,8.00
2023-01-01T16:40:23.235Z,7.68
2023-01-01T16:42:51.813Z,8.35
2023-01-01T16:45:21.831Z,7.45
2023-01-01T16:47:50.440Z,6.55
2023-01-01T16:50:19.305Z,7.32
2023-01-01T16:52:47.846Z,7.32
2023-01-01T16:55:16.783Z,6.57
2023-01-01T16:57:45.383Z,7.20
2023-01-01T17:00:15.426Z,7.55
2023-01-01T17:02:45.609Z,7.00
2023-01-01T17:05:14.590Z,6.65
2023-01-01T17:07:43.174Z,6.43
2023-01-01T17:10:11.882Z,7.10
2023-01-01T17:12:40.530Z,7.32
2023-01-01T17:15:10.355Z,6.70
2023-01-01T17:17:39.009Z,6.72
2023-01-01T17:20:10.119Z,6.38
2023-01-01T17:22:38.756Z,6.70
2023-01-01T17:25:09.081Z,6.25
2023-01-01T17:27:37.768Z,6.13
2023-01-01T17:30:08.191Z,6.07
2023-01-01T17:32:39.796Z,6.07
2023-01-01T17:35:11.065Z,6.00
2023-01-01T17:37:39.652Z,5.82
2023-01-01T17:40:10.066Z,5.78
2023-01-01T17:42:38.693Z,6.05
2023-01-01T17:45:09.735Z,6.22
2023-01-01T17:47:38.596Z,6.10
2023-01-01T17:50:10.476Z,5.97
2023-01-01T17:52:39.263Z,7.05
2023-01-01T17:55:09.279Z,5.75
2023-01-01T17:57:38.143Z,5.70
2023-01-01T18:00:10.637Z,5.65
2023-01-01T18:02:39.466Z,6.53
2023-01-01T18:05:10.372Z,5.57
2023-01-01T18:07:39.177Z,6.07
2023-01-01T18:10:09.132Z,5.70
2023-01-01T18:12:37.996Z,5.28
2023-01-01T18:15:07.943Z,5.80
2023-01-01T18:17:36.720Z,5.60
2023-01-01T18:20:06.577Z,5.50
2023-01-01T18:22:42.946Z,5.22
2023-01-01T18:25:12.156Z,5.13
2023-01-01T18:27:41.134Z,5.60
2023-01-01T18:30:10.858Z,5.53
2023-01-01T18:32:39.698Z,5.85
2023-01-01T18:35:09.993Z,5.57
2023-01-01T18:37:39.968Z,5.38
2023-01-01T18:40:13.284Z,5.60
2023-01-01T18:42:46.177Z,5.10
2023-01-01T18:45:19.639Z,4.93
2023-01-01T18:47:48.415Z,5.15
2023-01-01T18:50:23.825Z,4.28
2023-01-01T18:52:56.575Z,4.55
2023-01-01T18:55:28.169Z,5.07
2023-01-01T18:58:00.312Z,4.90
2023-01-01T19:00:31.292Z,5.53
2023-01-01T19:03:01.061Z,5.25
2023-01-01T19:05:31.151Z,4.80
2023-01-01T19:08:11.852Z,4.38
2023-01-01T19:10:41.951Z,4.30
2023-01-01T19:13:17.246Z,4.00
2023-01-01T19:15:47.456Z,4.78
2023-01-01T19:18:18.077Z,4.55
2023-01-01T19:20:47.154Z,4.45
2023-01-01T19:23:20.925Z,4.38
2023-01-01T19:25:49.951Z,4.38
2023-01-01T19:28:37.220Z,4.75
2023-01-01T19:31:09.034Z,4.00
2023-01-01T19:33:37.688Z,4.35
2023-01-01T19:36:07.200Z,4.45
2023-01-01T19:38:37.259Z,4.53
2023-01-01T19:41:06.436Z,3.70
2023-01-01T19:43:35.043Z,4.30
2023-01-01T19:46:03.996Z,4.50
2023-01-01T19:48:32.767Z,3.90
2023-01-01T19:51:01.447Z,4.00
2023-01-01T19:53:30.160Z,4.32
2023-01-01T19:56:00.550Z,4.20
2023-01-01T19:58:29.150Z,4.05
2023-01-01T20:00:57.874Z,3.88
2023-01-01T20:03:52.620Z,3.70
2023-01-01T20:06:15.627Z,4.72
2023-01-01T20:08:44.554Z,4.05
2023-01-01T20:11:15.587Z,3.80
2023-01-01T20:13:44.306Z,3.40
2023-01-01T20:16:13.202Z,3.60
2023-01-01T20:18:42.034Z,4.10
2023-01-01T20:21:28.308Z,3.88
2023-01-01T20:23:57.037Z,3.85
2023-01-01T20:26:27.516Z,3.90
2023-01-01T20:29:13.458Z,3.90
2023-01-01T20:31:43.047Z,3.92
2023-01-01T20:34:11.807Z,3.63
2023-01-01T20:36:57.962Z,4.45
2023-01-01T20:39:26.965Z,3.45
2023-01-01T20:41:57.441Z,3.90
2023-01-01T20:44:26.095Z,3.70
2023-01-01T20:46:55.055Z,3.90
2023-01-01T20:49:23.919Z,3.83
2023-01-01T20:51:53.650Z,3.70
2023-01-01T20:54:22.944Z,3.80
2023-01-01T20:56:51.644Z,3.35
2023-01-01T20:59:38.920Z,4.00
2023-01-01T21:02:08.575Z,3.47
2023-01-01T21:04:39.048Z,3.50
2023-01-01T21:07:09.423Z,3.90
2023-01-01T21:09:38.195Z,3.60
2023-01-01T21:12:07.489Z,3.22
2023-01-01T21:14:38.180Z,4.20
2023-01-01T21:17:19.486Z,3.88
2023-01-01T21:19:48.593Z,3.45
2023-01-01T21:22:17.346Z,3.15
2023-01-01T21:24:51.766Z,3.75
2023-01-01T21:27:25.726Z,3.13
2023-01-01T21:29:57.921Z,3.38
2023-01-01T21:32:28.912Z,3.30
2023-01-01T21:34:57.750Z,3.40
2023-01-01T21:37:45.359Z,3.38
2023-01-01T21:40:39.178Z,3.40
2023-01-01T21:43:35.831Z,3.33
2023-01-01T21:46:19.416Z,3.58
2023-01-01T21:48:55.621Z,3.45
2023-01-01T21:51:25.826Z,3.60
2023-01-01T21:53:55.303Z,3.60
2023-01-01T21:56:29.936Z,3.78
2023-01-01T21:59:21.517Z,3.58
2023-01-01T22:01:51.786Z,3.28
2023-01-01T22:04:22.316Z,3.38
2023-01-01T22:06:52.433Z,3.30
2023-01-01T22:09:23.904Z,3.55
2023-01-01T22:11:54.380Z,3.58
2023-01-01T22:14:26.691Z,6.10
2023-01-01T22:16:57.082Z,7.30
2023-01-01T22:19:25.936Z,7.65
2023-01-01T22:21:54.649Z,5.82
2023-01-01T22:24:33.604Z,7.13
2023-01-01T22:27:20.864Z,6.70
2023-01-01T22:29:49.847Z,6.28
2023-01-01T22:32:24.292Z,5.45
2023-01-01T22:34:53.856Z,4.78
2023-01-01T22:37:24.776Z,6.07
2023-01-01T22:39:53.469Z,5.20
2023-01-01T22:42:25.121Z,5.57
2023-01-01T22:44:58.639Z,5.82
2023-01-01T22:47:35.972Z,5.68
2023-01-01T22:50:05.801Z,5.57
2023-01-01T22:52:34.591Z,5.00
2023-01-01T22:55:03.801Z,4.93
2023-01-01T22:57:32.576Z,4.80
2023-01-01T23:00:01.310Z,5.50
2023-01-01T23:02:31.671Z,4.85
2023-01-01T23:05:00.957Z,4.88
2023-01-01T23:07:29.707Z,5.05
2023-01-01T23:09:58.446Z,4.72
2023-01-01T23:12:27.143Z,4.68
2023-01-01T23:15:13.399Z,4.78
2023-01-01T23:17:43.658Z,4.78
2023-01-01T23:20:13.210Z,4.75
2023-01-01T23:22:45.040Z,4.38
2023-01-01T23:25:16.069Z,4.80
2023-01-01T23:27:45.259Z,4.45
2023-01-01T23:30:15.085Z,4.95
2023-01-01T23:32:45.103Z,4.40
2023-01-01T23:35:13.996Z,3.83
2023-01-01T23:37:42.681Z,4.82
2023-01-01T23:40:12.974Z,4.07
2023-01-01T23:42:42.206Z,4.20
2023-01-01T23:45:11.647Z,4.35
2023-01-01T23:47:40.530Z,4.25
2023-01-01T23:50:11.188Z,3.80
2023-01-01T23:52:40.039Z,4.07
2023-01-01T23:55:10.168Z,3.67
2023-01-01T23:57:38.929Z,4.03
